Time;durP1;ratioP1;P1;durP2;ratioP2;P2;SDS_P1;SDS_P2;PMS_P1;PMS_P2;Temp;Humidity;BMP_temperature;BMP_pressure;BME280_temperature;BME280_humidity;BME280_pressure;Samples;Min_cycle;Max_cycle;Signal;HPM_P1;HPM_P2
2023/06/19 00:00:51;;;;;;;8.88;8.15;;;14.50;99.90;;;;;;10291380;28;20715;-86
2023/06/19 00:05:54;;;;;;;8.63;7.82;;;14.50;99.90;;;;;;10299405;28;20695;-86
2023/06/19 00:10:57;;;;;;;7.03;6.32;;;14.30;99.90;;;;;;10285789;28;20249;-86
2023/06/19 00:16:00;;;;;;;8.65;7.80;;;14.30;99.90;;;;;;10322852;28;20307;-86
2023/06/19 00:21:05;;;;;;;9.77;8.77;;;14.50;99.90;;;;;;10325106;28;20256;-86
2023/06/19 00:26:08;;;;;;;13.77;8.70;;;14.10;99.90;;;;;;10323179;28;20279;-86
2023/06/19 00:31:14;;;;;;;11.73;9.88;;;13.80;99.90;;;;;;10285039;28;20248;-86
2023/06/19 00:36:21;;;;;;;8.35;7.60;;;13.80;99.90;;;;;;10317058;28;20244;-86
2023/06/19 00:41:26;;;;;;;10.38;8.32;;;13.90;99.90;;;;;;10300876;28;20338;-86
2023/06/19 00:46:29;;;;;;;11.55;7.32;;;13.70;99.90;;;;;;10283972;28;20296;-86
2023/06/19 00:51:31;;;;;;;9.43;8.63;;;13.70;99.90;;;;;;10316721;28;20260;-86
2023/06/19 00:56:37;;;;;;;14.02;9.45;;;13.50;99.90;;;;;;10286173;28;20310;-86
2023/06/19 01:01:40;;;;;;;12.35;10.88;;;13.50;99.90;;;;;;10283326;28;20296;-86
2023/06/19 01:06:47;;;;;;;9.32;8.43;;;;;;;;;;10300041;28;20237;-85
2023/06/19 01:11:54;;;;;;;7.57;6.88;;;13.40;99.90;;;;;;10288000;28;20284;-86
2023/06/19 01:16:57;;;;;;;11.82;10.32;;;13.50;99.90;;;;;;10284495;28;20693;-86
2023/06/19 01:22:03;;;;;;;13.90;9.68;;;13.60;99.90;;;;;;10282577;28;20289;-86
2023/06/19 01:27:06;;;;;;;8.05;7.25;;;13.70;99.90;;;;;;10315570;28;20236;-86
2023/06/19 01:32:35;;;;;;;7.93;7.22;;;13.60;99.90;;;;;;10302826;28;20300;-86
2023/06/19 01:37:40;;;;;;;8.15;7.45;;;13.70;99.90;;;;;;10284688;28;20245;-86
2023/06/19 01:42:43;;;;;;;7.70;7.00;;;13.60;99.90;;;;;;10266179;28;20324;-86
2023/06/19 01:47:46;;;;;;;6.43;5.85;;;13.30;99.90;;;;;;10266028;28;20285;-86
2023/06/19 01:52:49;;;;;;;7.68;6.97;;;13.70;99.90;;;;;;10281879;28;20745;-86
2023/06/19 01:57:52;;;;;;;9.68;8.68;;;13.60;99.90;;;;;;10288563;28;20237;-86
2023/06/19 02:02:54;;;;;;;8.07;7.28;;;13.40;99.90;;;;;;10294932;28;20675;-86
2023/06/19 02:07:58;;;;;;;10.18;7.90;;;13.40;99.90;;;;;;10290522;28;20241;-86
2023/06/19 02:13:01;;;;;;;8.63;7.80;;;13.30;99.90;;;;;;10289390;28;20233;-86
2023/06/19 02:18:05;;;;;;;9.25;8.35;;;13.40;99.90;;;;;;10310258;28;20244;-86
2023/06/19 02:23:07;;;;;;;9.93;8.45;;;13.30;99.90;;;;;;10326664;28;20260;-86
2023/06/19 02:28:10;;;;;;;8.10;7.15;;;13.20;99.90;;;;;;10327286;28;20291;-86
2023/06/19 02:33:13;;;;;;;7.25;6.60;;;13.20;99.90;;;;;;10288336;28;20276;-86
2023/06/19 02:38:15;;;;;;;9.13;8.32;;;13.00;99.90;;;;;;10254932;28;20800;-86
2023/06/19 02:43:18;;;;;;;9.82;8.32;;;13.10;99.90;;;;;;10275887;28;20317;-86
2023/06/19 02:48:22;;;;;;;20.13;8.55;;;12.90;99.90;;;;;;10289385;28;20615;-86
2023/06/19 02:53:24;;;;;;;9.25;7.80;;;12.90;99.90;;;;;;10287700;28;20825;-86
2023/06/19 02:58:27;;;;;;;9.63;8.38;;;12.90;99.90;;;;;;10311271;28;20268;-86
2023/06/19 03:03:30;;;;;;;13.63;7.90;;;13.00;99.90;;;;;;10322091;28;20276;-86
2023/06/19 03:08:37;;;;;;;9.18;8.00;;;13.00;99.90;;;;;;10324498;28;20269;-86
2023/06/19 03:13:54;;;;;;;8.73;7.10;;;12.90;99.90;;;;;;10287189;28;20249;-86
2023/06/19 03:18:56;;;;;;;7.72;6.85;;;13.10;99.90;;;;;;10255540;28;20240;-86
2023/06/19 03:23:59;;;;;;;9.15;7.50;;;13.20;99.90;;;;;;10287849;28;20319;-86
2023/06/19 03:29:02;;;;;;;10.00;8.73;;;13.30;99.90;;;;;;10286524;28;20233;-86
2023/06/19 03:34:17;;;;;;;10.43;9.35;;;13.30;99.90;;;;;;10284838;28;20296;-86
2023/06/19 03:39:21;;;;;;;11.60;8.20;;;13.30;99.90;;;;;;10336203;28;20296;-86
2023/06/19 03:44:24;;;;;;;7.57;6.72;;;13.40;99.90;;;;;;10322923;28;20253;-86
2023/06/19 03:49:26;;;;;;;12.07;9.15;;;13.50;99.90;;;;;;10285684;28;20312;-86
2023/06/19 03:54:29;;;;;;;11.80;9.27;;;13.60;99.90;;;;;;10284585;28;20270;-86
2023/06/19 03:59:31;;;;;;;11.90;9.07;;;13.70;99.90;;;;;;10313058;28;20303;-86
2023/06/19 04:04:34;;;;;;;17.70;10.82;;;14.00;99.90;;;;;;10283335;28;20256;-86
2023/06/19 04:09:37;;;;;;;18.88;13.38;;;14.20;99.90;;;;;;10299754;28;20214;-87
2023/06/19 04:14:39;;;;;;;11.93;10.65;;;14.30;99.90;;;;;;10284330;28;20237;-86
2023/06/19 04:19:42;;;;;;;16.00;12.70;;;14.50;99.90;;;;;;10318252;28;20217;-87
2023/06/19 04:24:44;;;;;;;15.07;11.98;;;14.60;99.90;;;;;;10285223;28;20665;-87
2023/06/19 04:29:47;;;;;;;16.17;12.63;;;14.80;99.90;;;;;;10296587;28;20241;-87
2023/06/19 04:34:50;;;;;;;26.20;16.95;;;14.90;99.90;;;;;;10293443;28;20296;-86
2023/06/19 04:39:52;;;;;;;26.77;22.45;;;15.10;99.90;;;;;;10285214;28;20241;-86
2023/06/19 04:44:56;;;;;;;30.25;23.10;;;15.20;99.90;;;;;;10290364;28;20273;-85
2023/06/19 04:49:59;;;;;;;33.05;23.67;;;14.90;99.90;;;;;;10323617;28;20229;-85
2023/06/19 04:55:02;;;;;;;31.17;24.48;;;15.10;99.90;;;;;;10324631;28;20236;-85
2023/06/19 05:00:12;;;;;;;32.28;26.38;;;15.00;99.90;;;;;;10315204;28;20328;-86
2023/06/19 05:05:15;;;;;;;32.40;26.63;;;15.00;99.90;;;;;;10303241;28;21012;-85
2023/06/19 05:10:19;;;;;;;36.40;28.45;;;15.20;99.90;;;;;;10294827;28;20723;-87
2023/06/19 05:15:21;;;;;;;41.17;32.47;;;15.30;99.90;;;;;;10280769;28;20245;-86
2023/06/19 05:20:24;;;;;;;37.67;30.42;;;15.50;99.90;;;;;;10290779;28;20767;-85
2023/06/19 05:25:27;;;;;;;37.10;29.73;;;15.70;99.90;;;;;;10292581;28;20261;-85
2023/06/19 05:30:30;;;;;;;35.08;29.92;;;15.90;99.90;;;;;;10294176;28;20261;-84
2023/06/19 05:35:32;;;;;;;37.50;29.80;;;16.10;99.90;;;;;;10287986;28;20245;-84
2023/06/19 05:40:35;;;;;;;39.55;31.73;;;16.40;99.90;;;;;;10332943;28;20844;-83
2023/06/19 05:45:38;;;;;;;43.47;32.22;;;16.50;99.90;;;;;;10331895;28;20257;-83
2023/06/19 05:50:44;;;;;;;35.33;29.38;;;16.80;99.90;;;;;;10332824;28;20237;-83
2023/06/19 05:55:46;;;;;;;29.58;23.73;;;17.00;99.90;;;;;;10300922;28;20253;-83
2023/06/19 06:00:49;;;;;;;23.55;20.95;;;17.20;99.90;;;;;;10292147;28;20260;-84
2023/06/19 06:05:52;;;;;;;26.42;20.80;;;17.40;99.90;;;;;;10290687;28;20242;-84
2023/06/19 06:10:54;;;;;;;8.55;6.60;;;17.60;99.90;;;;;;10290281;28;20245;-83
2023/06/19 06:15:57;;;;;;;22.58;16.05;;;17.80;99.90;;;;;;10291186;28;20245;-83
2023/06/19 06:21:00;;;;;;;8.00;6.90;;;18.00;99.90;;;;;;10289569;28;20733;-83
2023/06/19 06:26:02;;;;;;;17.63;15.32;;;18.20;99.90;;;;;;10291778;28;20242;-84
2023/06/19 06:31:05;;;;;;;16.08;11.68;;;18.50;99.90;;;;;;10317542;28;20241;-84
2023/06/19 06:36:08;;;;;;;19.33;17.15;;;19.10;99.90;;;;;;10289953;28;20292;-84
2023/06/19 06:41:10;;;;;;;16.85;13.20;;;19.40;99.90;;;;;;10289986;28;20292;-84
2023/06/19 06:46:14;;;;;;;14.00;11.55;;;19.20;99.90;;;;;;10294097;28;20646;-84
2023/06/19 06:51:19;;;;;;;15.98;8.73;;;19.80;99.90;;;;;;10316000;28;20252;-84
2023/06/19 06:56:21;;;;;;;13.38;10.48;;;19.90;99.90;;;;;;10317667;28;20252;-84
2023/06/19 07:01:24;;;;;;;16.35;11.60;;;20.10;99.90;;;;;;10324242;28;20260;-84
2023/06/19 07:06:27;;;;;;;11.80;9.10;;;20.30;99.90;;;;;;10274870;28;20293;-84
2023/06/19 07:11:29;;;;;;;10.35;9.25;;;20.60;99.90;;;;;;10290835;28;20307;-85
2023/06/19 07:16:32;;;;;;;15.00;11.80;;;20.90;99.90;;;;;;10296756;28;20654;-85
2023/06/19 07:21:35;;;;;;;14.35;9.00;;;21.20;99.60;;;;;;10299167;28;20312;-85
2023/06/19 07:26:37;;;;;;;10.82;7.78;;;21.40;97.60;;;;;;10284851;28;20762;-85
2023/06/19 07:31:42;;;;;;;11.70;8.63;;;21.70;98.30;;;;;;10287446;28;20624;-86
2023/06/19 07:36:45;;;;;;;6.57;6.00;;;21.90;97.50;;;;;;10286751;28;20297;-86
2023/06/19 07:41:49;;;;;;;11.38;9.02;;;22.20;97.00;;;;;;10283465;28;20261;-86
2023/06/19 07:46:51;;;;;;;9.57;7.13;;;22.40;95.00;;;;;;10288077;28;20264;-87
2023/06/19 07:51:54;;;;;;;8.35;6.38;;;22.60;94.90;;;;;;10289437;28;20304;-85
2023/06/19 07:56:56;;;;;;;12.23;10.10;;;22.80;94.20;;;;;;10286691;28;20257;-85
2023/06/19 08:01:59;;;;;;;9.25;7.43;;;23.00;91.00;;;;;;10286972;28;20269;-84
2023/06/19 08:07:02;;;;;;;7.45;6.35;;;23.20;90.80;;;;;;10300008;28;20241;-84
2023/06/19 08:12:05;;;;;;;8.70;7.55;;;23.40;90.60;;;;;;10268097;28;20249;-83
2023/06/19 08:17:08;;;;;;;9.48;7.63;;;23.60;84.00;;;;;;10284694;28;20629;-85
2023/06/19 08:22:10;;;;;;;10.52;6.68;;;23.70;79.80;;;;;;10283413;28;20297;-85
2023/06/19 08:27:13;;;;;;;6.78;6.18;;;23.80;86.60;;;;;;10286933;28;20265;-84
2023/06/19 08:32:16;;;;;;;7.88;7.13;;;24.00;83.50;;;;;;10284938;28;20284;-85
2023/06/19 08:37:18;;;;;;;8.48;7.57;;;24.20;83.90;;;;;;10285603;28;20237;-84
2023/06/19 08:42:21;;;;;;;7.15;5.97;;;24.30;77.80;;;;;;10310735;28;20276;-87
2023/06/19 08:47:30;;;;;;;6.72;6.13;;;24.40;80.50;;;;;;10325170;28;20294;-84
2023/06/19 08:52:33;;;;;;;6.53;5.93;;;24.60;79.20;;;;;;10327357;28;20252;-84
2023/06/19 08:57:40;;;;;;;7.72;7.03;;;24.70;75.70;;;;;;10327512;28;20237;-84
2023/06/19 09:02:46;;;;;;;6.30;5.70;;;24.80;60.10;;;;;;10332823;28;20502;-84
2023/06/19 09:08:02;;;;;;;9.35;6.88;;;25.00;70.10;;;;;;10307465;28;20241;-84
2023/06/19 09:13:10;;;;;;;7.07;6.30;;;25.10;59.40;;;;;;10322716;28;20241;-85
2023/06/19 09:18:13;;;;;;;7.18;5.93;;;25.10;65.20;;;;;;10293595;28;20233;-85
2023/06/19 09:23:17;;;;;;;6.28;5.68;;;25.30;64.70;;;;;;10290495;28;20316;-85
2023/06/19 09:28:25;;;;;;;9.27;6.80;;;25.40;59.90;;;;;;10359503;28;20279;-86
2023/06/19 09:33:33;;;;;;;6.85;6.25;;;25.50;53.50;;;;;;10332714;28;20244;-85
2023/06/19 09:38:40;;;;;;;8.38;6.03;;;25.60;56.40;;;;;;10326943;28;20252;-84
2023/06/19 09:43:49;;;;;;;6.90;6.07;;;25.60;56.20;;;;;;10300379;28;20316;-84
2023/06/19 09:48:58;;;;;;;6.57;5.97;;;25.70;56.60;;;;;;10290468;28;20288;-86
2023/06/19 09:54:03;;;;;;;7.75;6.95;;;25.90;54.50;;;;;;10319591;28;20709;-84
2023/06/19 09:59:09;;;;;;;7.43;6.72;;;25.90;51.40;;;;;;10262729;28;20245;-84
2023/06/19 10:04:13;;;;;;;7.40;6.65;;;25.90;57.60;;;;;;10289006;28;20680;-86
2023/06/19 10:09:19;;;;;;;7.10;6.40;;;26.00;51.40;;;;;;10287837;28;20748;-86
2023/06/19 10:14:24;;;;;;;9.00;6.50;;;26.00;50.60;;;;;;10290135;28;20245;-86
2023/06/19 10:19:27;;;;;;;7.63;6.93;;;26.20;43.00;;;;;;10310177;28;20245;-84
2023/06/19 10:24:29;;;;;;;9.63;6.80;;;26.30;45.50;;;;;;10311914;28;20288;-84
2023/06/19 10:29:41;;;;;;;8.50;7.20;;;26.40;39.70;;;;;;10291380;28;20319;-83
2023/06/19 10:34:59;;;;;;;7.25;6.55;;;26.60;39.80;;;;;;10290035;28;20311;-83
2023/06/19 10:40:07;;;;;;;10.18;8.70;;;26.70;38.90;;;;;;10288670;28;20312;-84
2023/06/19 10:45:12;;;;;;;5.43;4.93;;;26.80;34.80;;;;;;10324201;28;20661;-85
2023/06/19 10:50:15;;;;;;;6.97;6.32;;;26.80;43.90;;;;;;10280206;28;20237;-84
2023/06/19 10:55:18;;;;;;;6.20;5.60;;;26.40;43.10;;;;;;10275854;28;20727;-84
2023/06/19 11:00:28;;;;;;;6.68;5.95;;;26.20;44.60;;;;;;10297853;28;20264;-85
2023/06/19 11:05:31;;;;;;;11.88;7.90;;;26.30;46.80;;;;;;10306954;28;20253;-84
2023/06/19 11:10:33;;;;;;;5.07;4.57;;;26.40;29.80;;;;;;10286822;28;20241;-84
2023/06/19 11:15:36;;;;;;;7.75;6.60;;;26.60;40.60;;;;;;10285985;28;20237;-84
2023/06/19 11:20:47;;;;;;;6.97;6.40;;;26.60;36.40;;;;;;10320938;28;20240;-85
2023/06/19 11:25:50;;;;;;;13.88;7.63;;;26.80;34.60;;;;;;10326368;28;20264;-84
2023/06/19 11:31:03;;;;;;;7.57;6.88;;;26.80;37.00;;;;;;10328120;28;20338;-85
2023/06/19 11:36:06;;;;;;;5.47;5.00;;;;;;;;;;10317687;28;20244;-84
2023/06/19 11:41:09;;;;;;;6.22;5.68;;;26.70;38.40;;;;;;10306388;28;20311;-86
2023/06/19 11:46:12;;;;;;;6.47;5.88;;;26.80;34.60;;;;;;10299536;28;20260;-85
2023/06/19 11:51:15;;;;;;;7.57;6.88;;;26.70;36.70;;;;;;10285871;28;20249;-85
2023/06/19 11:56:19;;;;;;;9.80;8.82;;;26.50;32.50;;;;;;10285541;28;20257;-84
2023/06/19 12:01:21;;;;;;;11.52;8.55;;;26.50;28.40;;;;;;10286245;28;20323;-85
2023/06/19 12:06:24;;;;;;;9.40;8.50;;;26.50;25.40;;;;;;10286134;28;20316;-84
2023/06/19 12:11:26;;;;;;;7.85;7.13;;;26.70;27.40;;;;;;10285936;28;20249;-85
2023/06/19 12:16:29;;;;;;;9.80;8.52;;;26.70;25.10;;;;;;10286337;28;20307;-85
2023/06/19 12:21:32;;;;;;;8.98;8.07;;;26.70;25.00;;;;;;10284888;28;20293;-86
2023/06/19 12:26:40;;;;;;;10.30;7.97;;;26.70;26.20;;;;;;10285664;28;20256;-86
2023/06/19 12:31:44;;;;;;;8.68;7.30;;;26.80;26.60;;;;;;10285478;28;20249;-87
2023/06/19 12:36:47;;;;;;;9.82;8.88;;;26.90;22.40;;;;;;10286037;28;20245;-86
2023/06/19 12:41:49;;;;;;;9.40;7.72;;;26.80;25.00;;;;;;10286106;28;20299;-85
2023/06/19 12:46:52;;;;;;;12.30;6.32;;;26.80;24.00;;;;;;10288778;28;20314;-83
2023/06/19 12:51:55;;;;;;;8.23;6.07;;;27.00;26.30;;;;;;10307129;28;20288;-85
2023/06/19 12:56:58;;;;;;;10.07;6.80;;;27.20;28.30;;;;;;10304657;28;20296;-86
2023/06/19 13:02:00;;;;;;;8.77;6.45;;;27.30;25.30;;;;;;10300555;28;20269;-85
2023/06/19 13:07:03;;;;;;;8.18;5.82;;;27.40;28.00;;;;;;10316233;28;20339;-85
2023/06/19 13:12:06;;;;;;;7.05;6.30;;;27.40;29.10;;;;;;10316540;28;20624;-84
2023/06/19 13:17:09;;;;;;;6.65;6.05;;;27.30;28.50;;;;;;10314901;28;20241;-86
2023/06/19 13:22:11;;;;;;;7.15;6.45;;;27.30;29.20;;;;;;10325501;28;20245;-85
2023/06/19 13:27:14;;;;;;;7.03;5.88;;;27.40;30.70;;;;;;10325245;28;20260;-86
2023/06/19 13:32:17;;;;;;;6.93;5.88;;;27.30;29.10;;;;;;10288898;28;20633;-85
2023/06/19 13:37:19;;;;;;;11.25;6.95;;;27.30;29.90;;;;;;10284034;28;20237;-85
2023/06/19 13:42:22;;;;;;;6.45;5.85;;;27.30;29.60;;;;;;10312211;28;20283;-87
2023/06/19 13:47:27;;;;;;;6.13;5.57;;;27.30;33.60;;;;;;10293162;28;20319;-87
2023/06/19 13:52:30;;;;;;;8.07;5.93;;;27.30;33.60;;;;;;10307562;28;20685;-87
2023/06/19 13:57:32;;;;;;;7.15;5.40;;;27.30;33.50;;;;;;10291933;28;20257;-87
2023/06/19 14:02:35;;;;;;;6.25;5.65;;;27.30;33.70;;;;;;10291053;28;20272;-87
2023/06/19 14:07:38;;;;;;;6.30;5.70;;;27.30;29.80;;;;;;10285385;28;20304;-87
2023/06/19 14:12:41;;;;;;;5.88;5.22;;;27.30;31.00;;;;;;10291455;28;20245;-86
2023/06/19 14:17:44;;;;;;;10.93;5.97;;;27.30;31.10;;;;;;10291434;28;20301;-87
2023/06/19 14:22:46;;;;;;;9.98;5.70;;;27.30;30.90;;;;;;10291134;28;20209;-87
2023/06/19 14:27:49;;;;;;;7.30;6.47;;;27.30;32.30;;;;;;10291713;28;20292;-88
2023/06/19 14:32:51;;;;;;;7.20;6.50;;;27.40;32.20;;;;;;10295390;28;20670;-87
2023/06/19 14:37:54;;;;;;;8.57;5.95;;;27.40;32.00;;;;;;10327328;28;20244;-86
2023/06/19 14:42:57;;;;;;;6.65;5.97;;;27.40;31.20;;;;;;10331308;28;20759;-87
2023/06/19 14:48:00;;;;;;;6.07;5.57;;;27.50;33.40;;;;;;10298467;28;20241;-87
2023/06/19 14:53:02;;;;;;;6.65;5.97;;;27.50;32.90;;;;;;10286752;28;20249;-86
2023/06/19 14:58:05;;;;;;;6.00;5.30;;;27.50;32.90;;;;;;10290202;28;20659;-87
2023/06/19 15:03:08;;;;;;;6.15;5.55;;;27.40;33.10;;;;;;10328546;28;20272;-86
2023/06/19 15:08:11;;;;;;;8.10;6.03;;;27.40;32.30;;;;;;9944449;28;10000644;-86
2023/06/19 15:13:13;;;;;;;5.80;5.13;;;27.30;31.50;;;;;;10285477;28;20705;-86
2023/06/19 15:18:16;;;;;;;6.03;5.43;;;27.20;32.90;;;;;;10285763;28;20292;-86
2023/06/19 15:23:19;;;;;;;6.18;5.18;;;27.20;34.30;;;;;;10283451;28;20257;-87
2023/06/19 15:28:21;;;;;;;6.30;5.72;;;27.00;35.90;;;;;;10284225;28;20272;-86
2023/06/19 15:33:24;;;;;;;5.65;5.00;;;26.90;35.40;;;;;;10284901;28;20299;-87
2023/06/19 15:38:26;;;;;;;14.32;7.07;;;26.80;36.00;;;;;;10300168;28;20249;-87
2023/06/19 15:43:30;;;;;;;7.65;6.50;;;26.80;33.50;;;;;;10283825;28;20253;-84
2023/06/19 15:48:34;;;;;;;6.07;5.55;;;26.70;33.20;;;;;;10291761;28;20833;-86
2023/06/19 15:53:40;;;;;;;8.02;5.53;;;26.80;33.20;;;;;;10285299;28;20687;-86
2023/06/19 15:58:42;;;;;;;4.25;3.85;;;26.70;33.60;;;;;;10300157;28;20307;-86
2023/06/19 16:03:45;;;;;;;5.68;5.10;;;26.70;37.00;;;;;;10320819;28;20307;-86
2023/06/19 16:08:50;;;;;;;5.32;4.93;;;26.80;34.40;;;;;;10301386;28;20763;-85
2023/06/19 16:13:53;;;;;;;6.72;5.60;;;26.80;37.50;;;;;;10287709;28;20261;-85
2023/06/19 16:18:55;;;;;;;5.95;5.03;;;27.00;35.50;;;;;;10286548;28;20300;-86
2023/06/19 16:23:58;;;;;;;5.50;5.10;;;27.10;30.20;;;;;;10287128;28;20265;-86
2023/06/19 16:29:01;;;;;;;5.43;4.93;;;27.00;36.00;;;;;;10285654;28;20237;-84
2023/06/19 16:34:05;;;;;;;6.07;5.57;;;26.90;37.40;;;;;;10287134;28;20241;-85
2023/06/19 16:39:09;;;;;;;7.80;5.97;;;26.80;36.10;;;;;;10270760;28;20772;-85
2023/06/19 16:44:12;;;;;;;5.97;5.47;;;26.90;36.50;;;;;;10261702;28;20269;-86
2023/06/19 16:49:15;;;;;;;8.52;7.13;;;26.80;34.00;;;;;;10246824;29;20277;-86
2023/06/19 16:54:19;;;;;;;8.88;7.95;;;26.70;32.50;;;;;;10262881;28;20249;-87
2023/06/19 16:59:22;;;;;;;11.02;8.05;;;26.70;33.60;;;;;;10288617;28;20810;-86
2023/06/19 17:04:25;;;;;;;8.55;6.10;;;26.80;29.30;;;;;;10326471;28;20674;-86
2023/06/19 17:09:27;;;;;;;8.18;6.93;;;26.70;30.90;;;;;;10326631;28;20245;-86
2023/06/19 17:14:30;;;;;;;8.23;7.43;;;26.60;31.20;;;;;;10311078;28;20307;-86
2023/06/19 17:19:33;;;;;;;9.48;6.93;;;26.50;31.60;;;;;;10316870;28;20701;-86
2023/06/19 17:24:35;;;;;;;8.68;7.18;;;26.40;32.10;;;;;;10333852;28;20319;-87
2023/06/19 17:29:38;;;;;;;7.13;6.10;;;26.20;30.00;;;;;;10333034;28;20291;-87
2023/06/19 17:34:41;;;;;;;12.23;7.85;;;26.10;32.90;;;;;;10332804;28;20575;-85
2023/06/19 17:39:44;;;;;;;11.25;8.25;;;25.90;33.30;;;;;;10333021;28;20223;-86
2023/06/19 17:44:47;;;;;;;16.15;7.53;;;25.80;33.70;;;;;;10315373;28;20272;-84
2023/06/19 17:49:50;;;;;;;11.65;7.32;;;25.60;36.60;;;;;;10331702;28;20236;-86
2023/06/19 17:54:54;;;;;;;6.93;6.22;;;25.50;38.70;;;;;;10339585;28;20290;-86
2023/06/19 17:59:57;;;;;;;13.07;8.13;;;25.40;40.30;;;;;;10322046;28;20259;-85
2023/06/19 18:04:59;;;;;;;21.35;9.45;;;25.30;40.00;;;;;;10355661;28;20288;-85
2023/06/19 18:10:03;;;;;;;23.17;9.00;;;25.10;39.80;;;;;;10331013;28;20316;-85
2023/06/19 18:15:06;;;;;;;19.42;8.73;;;25.00;42.50;;;;;;10330992;28;20252;-85
2023/06/19 18:20:09;;;;;;;14.55;8.73;;;24.70;42.90;;;;;;10323018;28;20658;-84
2023/06/19 18:25:12;;;;;;;14.50;8.13;;;24.50;48.20;;;;;;10306996;28;20315;-87
2023/06/19 18:30:15;;;;;;;9.68;6.68;;;24.30;53.20;;;;;;10329880;28;20232;-88
2023/06/19 18:35:17;;;;;;;27.70;9.05;;;24.00;61.30;;;;;;10328253;28;20236;-85
2023/06/19 18:40:20;;;;;;;46.33;10.35;;;23.80;69.20;;;;;;10310363;28;20735;-84
2023/06/19 18:45:23;;;;;;;24.55;10.30;;;23.60;73.20;;;;;;10329100;28;20256;-85
2023/06/19 18:50:25;;;;;;;36.13;10.73;;;23.50;72.40;;;;;;9980248;28;9999847;-85
2023/06/19 18:55:28;;;;;;;25.92;10.10;;;23.40;80.00;;;;;;10286332;28;20241;-85
2023/06/19 19:00:31;;;;;;;16.92;8.93;;;23.30;87.30;;;;;;10301373;28;20257;-85
2023/06/19 19:05:35;;;;;;;17.02;9.25;;;23.20;90.40;;;;;;10299206;28;20374;-85
2023/06/19 19:10:38;;;;;;;12.35;8.40;;;22.90;91.40;;;;;;10303329;28;20245;-85
2023/06/19 19:15:41;;;;;;;13.65;8.88;;;22.80;90.30;;;;;;10283183;28;20748;-86
2023/06/19 19:20:44;;;;;;;13.30;8.10;;;22.70;90.40;;;;;;10285626;28;20654;-84
2023/06/19 19:25:47;;;;;;;16.40;8.80;;;22.60;90.70;;;;;;10273932;28;20261;-84
2023/06/19 19:30:49;;;;;;;14.68;10.45;;;22.50;92.50;;;;;;10299259;28;20236;-85
2023/06/19 19:35:52;;;;;;;19.92;8.95;;;22.30;90.90;;;;;;10324967;28;20291;-85
2023/06/19 19:40:54;;;;;;;15.70;8.32;;;22.20;92.00;;;;;;10325265;28;20991;-85
2023/06/19 19:45:57;;;;;;;14.30;9.75;;;22.00;92.10;;;;;;10303288;28;20265;-85
2023/06/19 19:51:00;;;;;;;18.60;9.52;;;22.00;93.20;;;;;;10293710;28;20245;-85
2023/06/19 19:56:03;;;;;;;14.68;9.45;;;21.90;94.70;;;;;;10290913;28;20240;-84
2023/06/19 20:01:05;;;;;;;16.25;9.65;;;21.80;93.70;;;;;;10325063;28;20335;-86
2023/06/19 20:06:08;;;;;;;16.45;10.05;;;21.70;93.70;;;;;;10276860;28;20265;-84
2023/06/19 20:11:12;;;;;;;12.48;8.85;;;21.50;93.70;;;;;;10285079;28;20269;-84
2023/06/19 20:16:15;;;;;;;14.20;8.65;;;21.40;94.40;;;;;;10281261;28;20304;-89
2023/06/19 20:21:18;;;;;;;18.25;10.43;;;21.30;94.80;;;;;;10304145;28;20297;-85
2023/06/19 20:26:21;;;;;;;11.93;9.82;;;21.40;95.20;;;;;;10292088;28;20308;-85
2023/06/19 20:31:24;;;;;;;18.48;10.93;;;21.40;96.00;;;;;;10307193;28;20245;-85
2023/06/19 20:36:27;;;;;;;9.65;8.15;;;21.30;96.00;;;;;;10276029;28;20712;-86
2023/06/19 20:41:29;;;;;;;11.73;9.50;;;21.40;96.00;;;;;;10284310;28;20292;-85
2023/06/19 20:46:31;;;;;;;15.85;10.25;;;21.40;96.80;;;;;;10266052;28;20320;-84
2023/06/19 20:51:34;;;;;;;15.20;9.82;;;21.40;97.40;;;;;;10293250;28;21086;-84
2023/06/19 20:56:37;;;;;;;11.68;10.07;;;21.30;97.80;;;;;;10302513;28;20249;-84
2023/06/19 21:01:39;;;;;;;18.42;11.23;;;21.30;97.90;;;;;;10283722;28;20822;-85
2023/06/19 21:06:42;;;;;;;21.05;9.90;;;21.30;98.40;;;;;;10308810;28;20319;-85
2023/06/19 21:11:45;;;;;;;13.68;9.98;;;21.30;98.60;;;;;;10308109;28;20682;-84
2023/06/19 21:16:47;;;;;;;24.80;9.68;;;21.30;99.60;;;;;;10293635;28;20265;-84
2023/06/19 21:21:50;;;;;;;20.17;10.27;;;21.20;99.30;;;;;;10300382;28;20237;-88
2023/06/19 21:26:52;;;;;;;13.30;10.38;;;21.10;99.90;;;;;;10261759;28;20725;-88
2023/06/19 21:31:55;;;;;;;11.65;9.48;;;21.00;99.90;;;;;;10296293;28;20296;-85
2023/06/19 21:36:58;;;;;;;10.95;8.88;;;20.90;99.90;;;;;;10287702;28;20259;-85
2023/06/19 21:42:00;;;;;;;12.23;8.98;;;20.80;99.90;;;;;;10291533;28;20315;-85
2023/06/19 21:47:03;;;;;;;13.40;10.93;;;20.90;99.90;;;;;;10291484;28;20760;-85
2023/06/19 21:52:06;;;;;;;15.35;10.77;;;20.80;99.90;;;;;;10291500;28;20245;-85
2023/06/19 21:57:09;;;;;;;12.88;10.15;;;20.70;99.90;;;;;;10292168;28;20725;-85
2023/06/19 22:02:13;;;;;;;12.00;9.65;;;20.70;99.90;;;;;;10289578;28;20340;-85
2023/06/19 22:07:16;;;;;;;9.10;7.57;;;20.80;99.90;;;;;;10287645;28;20728;-85
2023/06/19 22:12:18;;;;;;;11.82;8.48;;;20.70;99.90;;;;;;10291546;28;20238;-85
2023/06/19 22:17:21;;;;;;;16.85;12.30;;;20.60;99.90;;;;;;10273531;28;20237;-85
2023/06/19 22:22:24;;;;;;;16.55;13.07;;;20.60;99.90;;;;;;10256633;28;20704;-85
2023/06/19 22:27:26;;;;;;;14.20;12.23;;;20.40;99.90;;;;;;10263678;28;20265;-85
2023/06/19 22:32:29;;;;;;;14.98;13.48;;;20.30;99.90;;;;;;10266020;28;20233;-85
2023/06/19 22:37:32;;;;;;;12.55;11.25;;;20.20;99.90;;;;;;10290402;28;20202;-85
2023/06/19 22:42:37;;;;;;;13.07;11.82;;;20.10;99.90;;;;;;10289346;28;20335;-85
2023/06/19 22:47:40;;;;;;;16.33;14.77;;;20.10;99.90;;;;;;10271837;28;20257;-85
2023/06/19 22:52:43;;;;;;;17.42;14.10;;;20.10;99.90;;;;;;10289846;28;20237;-85
2023/06/19 22:57:45;;;;;;;15.57;13.25;;;19.90;99.90;;;;;;10321254;28;20249;-85
2023/06/19 23:02:48;;;;;;;10.90;9.88;;;19.90;99.90;;;;;;10328994;28;20268;-85
2023/06/19 23:07:51;;;;;;;14.45;13.02;;;19.80;99.90;;;;;;10328533;28;20275;-85
2023/06/19 23:12:53;;;;;;;14.50;12.45;;;19.80;99.90;;;;;;10327235;28;20237;-85
2023/06/19 23:17:56;;;;;;;17.45;15.45;;;19.80;99.90;;;;;;10327432;28;20249;-85
2023/06/19 23:22:58;;;;;;;16.20;13.88;;;19.70;99.90;;;;;;10330565;28;20264;-85
2023/06/19 23:28:01;;;;;;;17.20;15.40;;;19.70;99.90;;;;;;10327495;28;20318;-85
2023/06/19 23:33:04;;;;;;;16.52;14.15;;;19.70;99.90;;;;;;10311685;28;20644;-85
2023/06/19 23:38:07;;;;;;;17.05;15.25;;;19.60;99.90;;;;;;10329906;28;20244;-85
2023/06/19 23:43:09;;;;;;;18.45;14.00;;;19.70;99.90;;;;;;10342873;28;20237;-85
2023/06/19 23:48:12;;;;;;;17.55;15.70;;;19.60;99.90;;;;;;10327398;28;20338;-85
2023/06/19 23:53:14;;;;;;;17.58;14.20;;;19.60;99.90;;;;;;10327135;28;20240;-84
2023/06/19 23:58:17;;;;;;;15.80;13.93;;;19.60;99.90;;;;;;10322061;28;20278;-85
